createdAt,value
2019-02-06T00:00:26.497Z,93.18
2019-02-06T00:01:29.783Z,92.33
2019-02-06T00:02:37.851Z,91.02
2019-02-06T00:03:45.884Z,88.95
2019-02-06T00:04:53.952Z,88.85
2019-02-06T00:06:01.968Z,89.23
2019-02-06T00:07:10.046Z,87.72
2019-02-06T00:08:18.089Z,87.25
2019-02-06T00:09:26.148Z,86.21
2019-02-06T00:10:34.194Z,83.48
2019-02-06T00:11:42.213Z,81.59
2019-02-06T00:12:50.329Z,79.05
2019-02-06T00:13:58.372Z,77.07
2019-02-06T00:15:06.408Z,75.47
2019-02-06T00:16:14.467Z,75.47
2019-02-06T00:17:22.497Z,75.09
2019-02-06T00:18:30.576Z,75.66
2019-02-06T00:19:38.603Z,75.56
2019-02-06T00:20:46.666Z,75.47
2019-02-06T00:21:54.698Z,75.23
2019-02-06T00:23:02.760Z,75.23
2019-02-06T00:24:10.817Z,75.32
2019-02-06T00:25:18.855Z,75.60
2019-02-06T00:26:26.918Z,74.76
2019-02-06T00:27:34.955Z,74.85
2019-02-06T00:28:43.037Z,73.62
2019-02-06T00:29:51.073Z,70.42
2019-02-06T00:30:59.124Z,68.91
2019-02-06T00:32:07.173Z,69.48
2019-02-06T00:33:15.222Z,69.29
2019-02-06T00:34:23.258Z,69.19
2019-02-06T00:35:31.321Z,69.76
2019-02-06T00:36:39.366Z,70.23
2019-02-06T00:37:47.432Z,70.23
2019-02-06T00:38:55.482Z,69.00
2019-02-06T00:40:03.541Z,68.06
2019-02-06T00:41:11.569Z,67.21
2019-02-06T00:42:19.652Z,64.01
2019-02-06T00:43:27.677Z,61.74
2019-02-06T00:44:35.751Z,61.08
2019-02-06T00:45:43.786Z,61.18
2019-02-06T00:46:51.828Z,60.61
2019-02-06T00:47:59.896Z,60.05
2019-02-06T00:49:07.945Z,59.39
2019-02-06T00:50:15.995Z,57.88
2019-02-06T00:51:24.046Z,58.07
2019-02-06T00:52:32.085Z,58.26
2019-02-06T00:53:40.164Z,57.69
2019-02-06T00:54:48.210Z,58.35
2019-02-06T00:55:56.253Z,57.97
2019-02-06T00:57:04.315Z,57.60
2019-02-06T00:58:12.354Z,56.93
2019-02-06T00:59:20.412Z,57.03
2019-02-06T01:00:28.464Z,57.78
2019-02-06T01:01:36.522Z,57.88
2019-02-06T01:02:44.582Z,57.69
2019-02-06T01:03:52.630Z,58.26
2019-02-06T01:05:00.672Z,57.97
2019-02-06T01:06:08.732Z,57.31
2019-02-06T01:07:16.774Z,56.75
2019-02-06T01:08:24.836Z,57.69
2019-02-06T01:09:32.890Z,58.45
2019-02-06T01:10:40.990Z,58.82
2019-02-06T01:11:48.988Z,59.01
2019-02-06T01:12:57.070Z,59.39
2019-02-06T01:14:05.077Z,60.80
2019-02-06T01:15:13.131Z,61.46
2019-02-06T01:16:21.170Z,64.10
2019-02-06T01:17:29.257Z,64.58
2019-02-06T01:18:37.279Z,64.39
2019-02-06T01:19:45.344Z,65.05
2019-02-06T01:20:53.403Z,65.70
2019-02-06T01:22:01.428Z,66.83
2019-02-06T01:23:09.554Z,66.93
2019-02-06T01:24:17.551Z,69.48
2019-02-06T01:25:25.607Z,72.68
2019-02-06T01:26:33.658Z,73.72
2019-02-06T01:27:41.703Z,76.26
2019-02-06T01:28:49.770Z,77.30
2019-02-06T01:29:57.818Z,82.58
2019-02-06T01:31:05.870Z,80.60
2019-02-06T01:32:13.913Z,84.09
2019-02-06T01:33:21.987Z,84.37
2019-02-06T01:34:30.023Z,87.38
2019-02-06T01:35:49.153Z,87.29
2019-02-06T01:36:46.123Z,87.29
2019-02-06T01:37:54.187Z,88.42
2019-02-06T01:39:02.201Z,87.67
2019-02-06T01:40:10.278Z,89.46
2019-02-06T01:41:18.329Z,89.08
2019-02-06T01:42:26.491Z,89.37
2019-02-06T01:43:34.428Z,89.84
2019-02-06T01:44:42.520Z,91.72
2019-02-06T01:45:50.531Z,92.76
2019-02-06T01:46:58.588Z,92.95
2019-02-06T01:48:06.651Z,94.55
2019-02-06T01:49:14.678Z,96.06
2019-02-06T01:50:22.737Z,97.00
2019-02-06T01:51:30.797Z,97.38
2019-02-06T01:52:38.865Z,97.85
2019-02-06T01:53:46.904Z,99.26
2019-02-06T01:54:54.944Z,99.99
2019-02-06T01:56:02.989Z,99.55
2019-02-06T01:57:11.050Z,99.99
2019-02-06T01:58:19.105Z,99.99
2019-02-06T01:59:27.164Z,99.99
2019-02-06T02:00:35.209Z,99.99
2019-02-06T02:01:43.258Z,99.99
2019-02-06T02:02:51.297Z,99.99
2019-02-06T02:03:59.373Z,99.99
2019-02-06T02:05:07.415Z,99.99
2019-02-06T02:06:15.475Z,98.27
2019-02-06T02:07:23.521Z,97.05
2019-02-06T02:08:31.568Z,94.69
2019-02-06T02:09:39.629Z,91.53
2019-02-06T02:10:47.672Z,89.27
2019-02-06T02:11:55.742Z,87.86
2019-02-06T02:13:03.782Z,86.72
2019-02-06T02:14:11.807Z,86.40
2019-02-06T02:15:19.906Z,87.06
2019-02-06T02:16:27.932Z,88.23
2019-02-06T02:17:35.978Z,88.52
2019-02-06T02:18:44.037Z,89.65
2019-02-06T02:19:52.064Z,89.65
2019-02-06T02:21:00.136Z,91.63
2019-02-06T02:22:08.188Z,92.19
2019-02-06T02:23:16.232Z,93.13
2019-02-06T02:24:24.288Z,93.42
2019-02-06T02:25:32.345Z,94.17
2019-02-06T02:26:40.396Z,95.12
2019-02-06T02:27:48.439Z,96.15
2019-02-06T02:28:56.486Z,96.44
2019-02-06T02:30:04.566Z,97.66
2019-02-06T02:31:12.586Z,98.41
2019-02-06T02:32:20.677Z,99.99
2019-02-06T02:33:28.694Z,99.99
2019-02-06T02:34:36.750Z,99.99
2019-02-06T02:35:44.801Z,99.99
2019-02-06T02:36:52.855Z,99.99
2019-02-06T02:38:00.901Z,99.99
2019-02-06T02:39:08.961Z,99.99
2019-02-06T02:40:17.009Z,99.99
2019-02-06T02:41:25.063Z,99.99
2019-02-06T02:42:33.105Z,99.99
2019-02-06T02:43:41.169Z,99.99
2019-02-06T02:44:49.209Z,99.99
2019-02-06T02:45:57.260Z,99.99
2019-02-06T02:47:05.321Z,99.99
2019-02-06T02:48:13.360Z,99.99
2019-02-06T02:49:21.405Z,99.99
2019-02-06T02:50:29.476Z,99.99
2019-02-06T02:51:37.531Z,99.99
2019-02-06T02:52:45.571Z,99.99
2019-02-06T02:53:53.619Z,99.99
2019-02-06T02:55:01.638Z,99.99
2019-02-06T02:56:09.728Z,99.99
2019-02-06T02:57:17.789Z,99.99
2019-02-06T02:58:25.849Z,99.99
2019-02-06T02:59:33.875Z,99.99
2019-02-06T03:00:41.914Z,99.99
2019-02-06T03:01:49.995Z,99.50
2019-02-06T03:02:58.036Z,98.36
2019-02-06T03:04:06.081Z,99.99
2019-02-06T03:05:14.126Z,99.99
2019-02-06T03:06:27.951Z,99.99
2019-02-06T03:07:30.264Z,99.99
2019-02-06T03:08:38.278Z,99.99
2019-02-06T03:09:46.446Z,99.99
2019-02-06T03:10:54.481Z,99.99
2019-02-06T03:12:02.441Z,99.99
2019-02-06T03:13:10.493Z,99.99
2019-02-06T03:14:18.634Z,99.99
2019-02-06T03:15:26.588Z,97.61
2019-02-06T03:16:34.651Z,95.87
2019-02-06T03:17:42.708Z,96.91
2019-02-06T03:18:50.758Z,97.85
2019-02-06T03:19:58.785Z,96.81
2019-02-06T03:21:06.849Z,98.51
2019-02-06T03:22:14.898Z,98.51
2019-02-06T03:23:22.957Z,99.17
2019-02-06T03:24:31.098Z,97.94
2019-02-06T03:25:39.137Z,99.36
2019-02-06T03:26:47.236Z,98.51
2019-02-06T03:27:55.196Z,97.28
2019-02-06T03:29:03.223Z,97.28
2019-02-06T03:30:11.266Z,97.09
2019-02-06T03:31:19.316Z,99.08
2019-02-06T03:32:27.379Z,98.98
2019-02-06T03:33:35.432Z,98.98
2019-02-06T03:34:43.485Z,97.85
2019-02-06T03:35:51.496Z,95.97
2019-02-06T03:36:59.570Z,94.74
2019-02-06T03:38:07.665Z,93.13
2019-02-06T03:39:15.677Z,92.19
2019-02-06T03:40:23.726Z,91.06
2019-02-06T03:41:31.769Z,91.16
2019-02-06T03:42:39.814Z,90.97
2019-02-06T03:43:47.892Z,89.84
2019-02-06T03:44:55.936Z,87.10
2019-02-06T03:46:03.999Z,88.23
2019-02-06T03:47:12.002Z,88.14
2019-02-06T03:48:20.084Z,87.95
2019-02-06T03:49:28.138Z,87.10
2019-02-06T03:50:36.199Z,86.25
2019-02-06T03:51:44.238Z,85.69
2019-02-06T03:52:52.265Z,84.75
2019-02-06T03:54:00.357Z,84.18
2019-02-06T03:55:08.378Z,84.47
2019-02-06T03:56:16.441Z,83.33
2019-02-06T03:57:24.510Z,83.33
2019-02-06T03:58:32.551Z,83.33
2019-02-06T03:59:40.599Z,82.86
2019-02-06T04:00:48.675Z,83.33
2019-02-06T04:01:56.701Z,84.37
2019-02-06T04:03:04.773Z,83.43
2019-02-06T04:04:12.800Z,80.51
2019-02-06T04:05:20.848Z,79.66
2019-02-06T04:06:28.918Z,78.52
2019-02-06T04:07:36.957Z,78.34
2019-02-06T04:08:45.010Z,77.30
2019-02-06T04:09:54.140Z,77.20
2019-02-06T04:11:01.120Z,76.82
2019-02-06T04:12:09.157Z,76.35
2019-02-06T04:13:17.215Z,76.73
2019-02-06T04:14:25.267Z,77.49
2019-02-06T04:15:33.318Z,77.58
2019-02-06T04:16:41.351Z,76.64
2019-02-06T04:17:49.420Z,75.51
2019-02-06T04:18:57.478Z,73.81
2019-02-06T04:20:05.525Z,74.00
2019-02-06T04:21:13.585Z,72.68
2019-02-06T04:22:21.604Z,71.92
2019-02-06T04:23:29.675Z,71.36
2019-02-06T04:24:37.729Z,72.21
2019-02-06T04:25:45.790Z,72.21
2019-02-06T04:26:53.852Z,72.68
2019-02-06T04:28:01.899Z,72.77
2019-02-06T04:29:09.933Z,71.92
2019-02-06T04:30:17.997Z,69.76
2019-02-06T04:31:26.062Z,70.61
2019-02-06T04:32:34.129Z,70.98
2019-02-06T04:33:42.144Z,69.85
2019-02-06T04:34:50.185Z,69.95
2019-02-06T04:35:58.250Z,69.57
2019-02-06T04:37:07.004Z,69.00
2019-02-06T04:38:14.349Z,66.46
2019-02-06T04:39:22.376Z,64.95
2019-02-06T04:40:30.461Z,65.61
2019-02-06T04:41:38.497Z,66.08
2019-02-06T04:42:46.547Z,65.61
2019-02-06T04:43:54.609Z,66.46
2019-02-06T04:45:02.686Z,65.99
2019-02-06T04:46:10.867Z,67.49
2019-02-06T04:47:18.767Z,69.29
2019-02-06T04:48:26.816Z,69.85
2019-02-06T04:49:34.892Z,69.95
2019-02-06T04:50:42.930Z,68.82
2019-02-06T04:51:50.979Z,71.17
2019-02-06T04:52:59.026Z,71.83
2019-02-06T04:54:07.094Z,72.96
2019-02-06T04:55:15.131Z,72.30
2019-02-06T04:56:23.191Z,73.53
2019-02-06T04:57:31.232Z,75.32
2019-02-06T04:58:39.286Z,74.47
2019-02-06T04:59:47.353Z,74.85
2019-02-06T05:00:55.388Z,72.77
2019-02-06T05:02:03.442Z,72.96
2019-02-06T05:03:11.489Z,73.72
2019-02-06T05:04:19.543Z,76.26
2019-02-06T05:05:27.602Z,76.26
2019-02-06T05:06:35.662Z,75.51
2019-02-06T05:07:43.711Z,75.51
2019-02-06T05:08:51.733Z,75.23
2019-02-06T05:09:59.792Z,75.04
2019-02-06T05:11:07.846Z,74.28
2019-02-06T05:12:15.906Z,74.38
2019-02-06T05:13:23.968Z,73.53
2019-02-06T05:14:31.989Z,73.81
2019-02-06T05:15:40.068Z,74.10
2019-02-06T05:16:48.103Z,74.85
2019-02-06T05:17:56.153Z,75.51
2019-02-06T05:19:04.226Z,75.23
2019-02-06T05:20:12.248Z,75.79
2019-02-06T05:21:20.325Z,77.30
2019-02-06T05:22:28.398Z,77.39
2019-02-06T05:23:36.420Z,78.34
2019-02-06T05:24:44.483Z,79.09
2019-02-06T05:25:52.520Z,79.85
2019-02-06T05:27:00.576Z,80.79
2019-02-06T05:28:08.643Z,81.73
2019-02-06T05:29:16.674Z,82.86
2019-02-06T05:30:24.742Z,82.95
2019-02-06T05:31:32.778Z,82.67
2019-02-06T05:32:42.884Z,81.92
2019-02-06T05:33:48.873Z,82.95
2019-02-06T05:34:56.952Z,82.29
2019-02-06T05:36:04.997Z,82.10
2019-02-06T05:37:13.051Z,80.60
2019-02-06T05:38:21.100Z,78.52
2019-02-06T05:39:29.146Z,77.01
2019-02-06T05:40:37.198Z,75.32
2019-02-06T05:41:45.264Z,75.23
2019-02-06T05:42:53.334Z,74.57
2019-02-06T05:44:01.344Z,73.91
2019-02-06T05:45:09.419Z,73.91
2019-02-06T05:46:17.467Z,72.21
2019-02-06T05:47:25.524Z,71.45
2019-02-06T05:48:33.573Z,71.64
2019-02-06T05:49:41.586Z,72.02
2019-02-06T05:50:49.665Z,72.68
2019-02-06T05:51:57.719Z,71.36
2019-02-06T05:53:05.781Z,71.83
2019-02-06T05:54:13.826Z,71.55
2019-02-06T05:55:21.861Z,71.17
2019-02-06T05:56:29.937Z,71.45
2019-02-06T05:57:37.985Z,71.36
2019-02-06T05:58:46.031Z,70.70
2019-02-06T05:59:54.079Z,70.70
2019-02-06T06:01:02.102Z,71.64
2019-02-06T06:02:10.171Z,72.77
2019-02-06T06:03:18.245Z,72.68
2019-02-06T06:04:26.288Z,74.38
2019-02-06T06:05:34.333Z,73.25
2019-02-06T06:06:42.374Z,72.87
2019-02-06T06:07:50.468Z,72.77
2019-02-06T06:08:58.517Z,73.72
2019-02-06T06:10:06.813Z,73.25
2019-02-06T06:11:14.610Z,72.77
2019-02-06T06:12:22.700Z,72.02
2019-02-06T06:13:30.737Z,73.72
2019-02-06T06:14:39.046Z,71.73
2019-02-06T06:15:46.801Z,72.77
2019-02-06T06:16:54.870Z,74.47
2019-02-06T06:18:02.920Z,77.11
2019-02-06T06:19:10.974Z,77.20
2019-02-06T06:20:19.027Z,77.20
2019-02-06T06:21:27.080Z,78.43
2019-02-06T06:22:35.105Z,78.34
2019-02-06T06:23:43.217Z,78.52
2019-02-06T06:24:51.220Z,79.56
2019-02-06T06:25:59.270Z,77.96
2019-02-06T06:27:07.324Z,79.85
2019-02-06T06:28:15.392Z,79.94
2019-02-06T06:29:23.433Z,80.79
2019-02-06T06:30:31.483Z,81.92
2019-02-06T06:31:39.543Z,82.58
2019-02-06T06:32:47.614Z,84.09
2019-02-06T06:33:55.665Z,85.03
2019-02-06T06:35:03.684Z,84.47
2019-02-06T06:36:12.226Z,83.14
2019-02-06T06:37:19.807Z,81.82
2019-02-06T06:38:28.070Z,80.22
2019-02-06T06:39:35.987Z,80.79
2019-02-06T06:40:44.161Z,80.32
2019-02-06T06:41:52.099Z,77.96
2019-02-06T06:43:00.250Z,77.39
2019-02-06T06:44:08.274Z,76.64
2019-02-06T06:45:16.353Z,76.92
2019-02-06T06:46:24.229Z,76.35
2019-02-06T06:47:32.519Z,76.07
2019-02-06T06:48:40.318Z,75.07
2019-02-06T06:49:48.369Z,75.26
2019-02-06T06:50:56.440Z,75.54
2019-02-06T06:52:04.499Z,75.07
2019-02-06T06:53:12.532Z,74.76
2019-02-06T06:54:20.590Z,74.51
2019-02-06T06:55:28.784Z,71.77
2019-02-06T06:56:37.049Z,70.83
2019-02-06T06:57:45.298Z,69.13
2019-02-06T06:58:53.103Z,70.17
2019-02-06T07:00:01.273Z,69.32
2019-02-06T07:01:10.878Z,69.23
2019-02-06T07:02:16.952Z,69.23
2019-02-06T07:03:25.015Z,68.95
2019-02-06T07:04:33.129Z,68.57
2019-02-06T07:05:41.124Z,68.29
2019-02-06T07:06:49.170Z,68.10
2019-02-06T07:08:07.739Z,68.38
2019-02-06T07:09:05.510Z,68.38
2019-02-06T07:10:13.631Z,67.62
2019-02-06T07:11:21.353Z,67.62
2019-02-06T07:12:29.524Z,67.43
2019-02-06T07:13:37.825Z,68.95
2019-02-06T07:14:45.544Z,68.29
2019-02-06T07:15:53.592Z,68.29
2019-02-06T07:17:01.612Z,68.19
2019-02-06T07:18:09.710Z,68.10
2019-02-06T07:19:17.737Z,69.32
2019-02-06T07:20:25.802Z,68.38
2019-02-06T07:21:33.842Z,68.19
2019-02-06T07:22:41.873Z,69.23
2019-02-06T07:23:50.251Z,67.06
2019-02-06T07:24:58.028Z,69.23
2019-02-06T07:26:06.062Z,70.17
2019-02-06T07:27:14.108Z,71.77
2019-02-06T07:28:22.220Z,71.77
2019-02-06T07:29:30.724Z,73.00
2019-02-06T07:30:38.275Z,72.72
2019-02-06T07:31:46.481Z,70.36
2019-02-06T07:32:54.662Z,69.51
2019-02-06T07:34:02.419Z,67.72
2019-02-06T07:35:10.487Z,66.58
2019-02-06T07:36:18.538Z,64.98
2019-02-06T07:37:26.641Z,64.79
2019-02-06T07:38:34.647Z,64.61
2019-02-06T07:39:42.829Z,62.06
2019-02-06T07:40:50.754Z,60.93
2019-02-06T07:41:58.802Z,59.89
2019-02-06T07:43:07.179Z,60.46
2019-02-06T07:44:14.917Z,60.55
2019-02-06T07:45:22.960Z,60.55
2019-02-06T07:46:31.437Z,58.57
2019-02-06T07:47:39.133Z,58.66
2019-02-06T07:48:47.175Z,58.38
2019-02-06T07:49:55.370Z,57.72
2019-02-06T07:51:03.221Z,57.56
2019-02-06T07:52:11.267Z,56.05
2019-02-06T07:53:19.322Z,56.90
2019-02-06T07:54:27.618Z,56.90
2019-02-06T07:55:35.460Z,57.37
2019-02-06T07:56:43.497Z,58.22
2019-02-06T07:57:51.973Z,58.22
2019-02-06T07:58:59.598Z,58.98
2019-02-06T08:00:07.643Z,58.03
2019-02-06T08:01:15.720Z,59.64
2019-02-06T08:02:23.829Z,58.60
2019-02-06T08:03:31.823Z,60.58
2019-02-06T08:04:41.521Z,61.33
2019-02-06T08:05:47.914Z,62.66
2019-02-06T08:06:56.066Z,62.56
2019-02-06T08:08:04.492Z,63.13
2019-02-06T08:09:13.803Z,68.41
2019-02-06T08:10:20.404Z,67.28
2019-02-06T08:11:28.317Z,66.24
2019-02-06T08:12:36.395Z,64.83
2019-02-06T08:13:44.407Z,63.03
2019-02-06T08:14:52.669Z,64.83
2019-02-06T08:16:00.412Z,64.73
2019-02-06T08:17:08.691Z,66.34
2019-02-06T08:18:16.509Z,66.71
2019-02-06T08:19:24.733Z,68.13
2019-02-06T08:20:32.771Z,68.88
2019-02-06T08:21:40.672Z,69.26
2019-02-06T08:22:48.788Z,68.41
2019-02-06T08:23:56.855Z,66.43
2019-02-06T08:25:04.834Z,66.90
2019-02-06T08:26:12.874Z,68.60
2019-02-06T08:27:21.090Z,70.02
2019-02-06T08:28:28.996Z,69.45
2019-02-06T08:29:37.158Z,70.30
2019-02-06T08:30:45.456Z,70.20
2019-02-06T08:31:53.452Z,70.11
2019-02-06T08:33:01.456Z,75.02
2019-02-06T08:34:09.273Z,76.25
2019-02-06T08:35:17.326Z,81.62
2019-02-06T08:36:25.648Z,80.06
2019-02-06T08:37:33.457Z,80.34
2019-02-06T08:38:47.553Z,81.38
2019-02-06T08:39:49.545Z,84.03
2019-02-06T08:40:57.805Z,83.74
2019-02-06T08:42:05.656Z,85.35
2019-02-06T08:43:13.860Z,85.35
2019-02-06T08:44:21.727Z,85.91
2019-02-06T08:45:30.175Z,84.88
2019-02-06T08:46:37.879Z,85.06
2019-02-06T08:47:46.095Z,85.91
2019-02-06T08:48:53.983Z,91.67
2019-02-06T08:50:02.384Z,95.73
2019-02-06T08:51:10.209Z,94.41
2019-02-06T08:52:18.367Z,94.79
2019-02-06T08:53:26.398Z,95.45
2019-02-06T08:54:34.232Z,96.58
2019-02-06T08:55:42.279Z,96.58
2019-02-06T08:56:50.795Z,98.19
2019-02-06T08:57:58.413Z,98.66
2019-02-06T08:59:06.553Z,98.10
2019-02-06T09:00:14.499Z,96.39
2019-02-06T09:01:22.754Z,94.79
2019-02-06T09:02:30.737Z,95.64
2019-02-06T09:03:38.709Z,97.91
2019-02-06T09:04:55.410Z,99.13
2019-02-06T09:05:54.784Z,99.99
2019-02-06T09:07:02.858Z,99.99
2019-02-06T09:08:10.906Z,99.99
2019-02-06T09:09:18.953Z,99.99
2019-02-06T09:10:27.465Z,99.99
2019-02-06T09:11:35.452Z,99.99
2019-02-06T09:12:43.118Z,99.99
2019-02-06T09:13:51.329Z,99.99
2019-02-06T09:14:59.484Z,99.99
2019-02-06T09:16:07.987Z,99.99
2019-02-06T09:17:15.423Z,99.99
2019-02-06T09:18:23.837Z,99.99
2019-02-06T09:19:31.491Z,99.99
2019-02-06T09:20:39.534Z,99.99
2019-02-06T09:21:47.570Z,99.99
2019-02-06T09:22:55.669Z,99.99
2019-02-06T09:24:03.688Z,99.99
2019-02-06T09:25:11.702Z,99.99
2019-02-06T09:26:20.229Z,99.99
2019-02-06T09:27:27.851Z,99.99
2019-02-06T09:28:37.357Z,99.99
2019-02-06T09:29:43.952Z,99.99
2019-02-06T09:30:51.993Z,99.99
2019-02-06T09:32:00.123Z,99.99
2019-02-06T09:33:08.615Z,99.99
2019-02-06T09:34:16.327Z,99.99
2019-02-06T09:35:24.243Z,99.99
2019-02-06T09:36:32.261Z,99.99
2019-02-06T09:37:40.355Z,99.99
2019-02-06T09:38:48.404Z,99.99
2019-02-06T09:39:56.456Z,99.99
2019-02-06T09:41:04.709Z,99.99
2019-02-06T09:42:12.565Z,99.99
2019-02-06T09:43:20.639Z,99.99
2019-02-06T09:44:28.677Z,99.99
2019-02-06T09:45:36.825Z,99.99
2019-02-06T09:46:44.800Z,99.99
2019-02-06T09:47:52.937Z,99.99
2019-02-06T09:49:00.903Z,99.99
2019-02-06T09:50:08.960Z,99.99
2019-02-06T09:51:19.194Z,99.99
2019-02-06T09:52:28.554Z,99.99
2019-02-06T09:53:33.148Z,99.99
2019-02-06T09:54:41.183Z,99.99
2019-02-06T09:55:49.229Z,99.99
2019-02-06T09:56:57.383Z,99.99
2019-02-06T09:58:05.356Z,99.99
2019-02-06T09:59:13.618Z,99.99
2019-02-06T10:00:21.514Z,99.99
2019-02-06T10:01:29.535Z,99.99
2019-02-06T10:02:37.587Z,99.99
2019-02-06T10:03:46.923Z,99.99
2019-02-06T10:04:53.708Z,99.99
2019-02-06T10:06:01.816Z,99.99
2019-02-06T10:07:09.969Z,99.99
2019-02-06T10:08:18.146Z,99.99
2019-02-06T10:09:26.097Z,99.99
2019-02-06T10:10:34.016Z,99.99
2019-02-06T10:11:42.005Z,99.99
2019-02-06T10:12:52.072Z,99.99
2019-02-06T10:13:58.636Z,99.99
2019-02-06T10:15:06.215Z,99.99
2019-02-06T10:16:14.252Z,99.99
2019-02-06T10:17:22.297Z,99.99
2019-02-06T10:18:30.392Z,99.99
2019-02-06T10:19:38.432Z,99.99
2019-02-06T10:20:46.492Z,99.99
2019-02-06T10:21:54.593Z,99.99
2019-02-06T10:23:03.048Z,99.99
2019-02-06T10:24:10.657Z,99.99
2019-02-06T10:25:19.262Z,99.99
2019-02-06T10:26:26.776Z,99.99
2019-02-06T10:27:34.948Z,99.99
2019-02-06T10:28:42.887Z,99.99
2019-02-06T10:29:50.958Z,99.99
2019-02-06T10:30:59.009Z,99.99
2019-02-06T10:32:08.779Z,99.99
2019-02-06T10:33:18.332Z,99.99
2019-02-06T10:34:23.258Z,99.99
2019-02-06T10:35:31.228Z,99.99
2019-02-06T10:36:39.293Z,99.99
2019-02-06T10:37:47.350Z,99.99
2019-02-06T10:38:55.411Z,99.99
2019-02-06T10:40:03.705Z,99.99
2019-02-06T10:41:11.726Z,99.99
2019-02-06T10:42:19.590Z,99.99
2019-02-06T10:43:31.856Z,99.99
2019-02-06T10:44:35.705Z,99.99
2019-02-06T10:45:43.779Z,99.99
2019-02-06T10:46:52.228Z,99.99
2019-02-06T10:47:59.967Z,99.99
2019-02-06T10:49:07.935Z,99.99
2019-02-06T10:50:15.991Z,99.99
2019-02-06T10:51:24.206Z,99.99
2019-02-06T10:52:32.072Z,99.99
2019-02-06T10:53:40.191Z,99.99
2019-02-06T10:54:48.228Z,99.99
2019-02-06T10:55:56.379Z,99.99
2019-02-06T10:57:04.832Z,99.99
2019-02-06T10:58:12.558Z,99.99
2019-02-06T10:59:20.445Z,99.99
2019-02-06T11:00:29.860Z,99.99
2019-02-06T11:01:36.997Z,99.99
2019-02-06T11:02:44.620Z,99.99
2019-02-06T11:03:52.684Z,99.99
2019-02-06T11:05:00.733Z,99.99
2019-02-06T11:06:08.792Z,99.99
2019-02-06T11:07:16.884Z,99.99
2019-02-06T11:08:24.910Z,99.99
2019-02-06T11:09:32.962Z,99.99
2019-02-06T11:10:41.029Z,99.99
2019-02-06T11:11:49.091Z,99.99
2019-02-06T11:12:57.146Z,99.99
2019-02-06T11:14:05.214Z,99.99
2019-02-06T11:15:13.268Z,99.99
2019-02-06T11:16:21.338Z,99.99
2019-02-06T11:17:29.388Z,99.99
2019-02-06T11:18:37.516Z,99.99
2019-02-06T11:19:45.522Z,99.99
2019-02-06T11:20:53.541Z,99.99
2019-02-06T11:22:01.626Z,99.99
2019-02-06T11:23:09.660Z,99.99
2019-02-06T11:24:17.750Z,99.99
2019-02-06T11:25:26.260Z,99.99
2019-02-06T11:26:33.853Z,99.99
2019-02-06T11:27:41.884Z,99.99
2019-02-06T11:28:50.046Z,99.99
2019-02-06T11:29:58.024Z,99.99
2019-02-06T11:31:06.100Z,99.99
2019-02-06T11:32:14.127Z,99.99
2019-02-06T11:33:22.167Z,99.99
2019-02-06T11:34:30.360Z,99.99
2019-02-06T11:35:38.374Z,99.99
2019-02-06T11:36:46.556Z,99.99
2019-02-06T11:37:54.585Z,99.99
2019-02-06T11:39:02.934Z,99.99
2019-02-06T11:40:10.802Z,99.99
2019-02-06T11:41:18.797Z,99.99
2019-02-06T11:42:26.666Z,99.99
2019-02-06T11:43:34.721Z,99.99
2019-02-06T11:44:42.793Z,99.99
2019-02-06T11:45:50.847Z,99.99
2019-02-06T11:46:58.905Z,99.99
2019-02-06T11:48:06.979Z,99.99
2019-02-06T11:49:15.501Z,99.99
2019-02-06T11:50:23.076Z,99.99
2019-02-06T11:51:31.146Z,99.99
2019-02-06T11:52:39.201Z,99.99
2019-02-06T11:53:47.251Z,99.99
2019-02-06T11:54:55.327Z,99.99
2019-02-06T11:56:03.481Z,99.99
2019-02-06T11:57:11.420Z,99.99
2019-02-06T11:58:20.100Z,99.99
2019-02-06T11:59:27.561Z,99.99
2019-02-06T12:00:36.043Z,99.99
2019-02-06T12:01:43.979Z,99.99
2019-02-06T12:02:52.017Z,99.99
2019-02-06T12:03:59.782Z,99.99
2019-02-06T12:05:07.871Z,99.99
2019-02-06T12:06:16.094Z,99.99
2019-02-06T12:07:23.957Z,99.99
2019-02-06T12:08:32.058Z,99.99
2019-02-06T12:09:40.094Z,99.99
2019-02-06T12:10:48.157Z,99.99
2019-02-06T12:11:56.214Z,99.99
2019-02-06T12:13:04.631Z,99.99
2019-02-06T12:14:12.700Z,99.99
2019-02-06T12:15:20.763Z,99.99
2019-02-06T12:16:28.555Z,99.99
2019-02-06T12:17:36.502Z,99.99
2019-02-06T12:18:44.605Z,99.99
2019-02-06T12:19:52.634Z,99.99
2019-02-06T12:21:01.027Z,99.99
2019-02-06T12:22:08.754Z,99.99
2019-02-06T12:23:17.209Z,99.99
2019-02-06T12:24:24.884Z,99.99
2019-02-06T12:25:34.434Z,99.99
2019-02-06T12:26:41.434Z,99.99
2019-02-06T12:27:49.156Z,99.99
2019-02-06T12:28:57.552Z,99.99
2019-02-06T12:30:05.198Z,99.99
2019-02-06T12:31:13.227Z,99.99
2019-02-06T12:32:21.616Z,99.99
2019-02-06T12:33:29.488Z,99.99
2019-02-06T12:34:37.826Z,99.99
2019-02-06T12:35:45.635Z,99.99
2019-02-06T12:36:53.714Z,99.99
2019-02-06T12:38:01.579Z,99.99
2019-02-06T12:39:09.704Z,99.99
2019-02-06T12:40:21.353Z,99.99
2019-02-06T12:41:25.888Z,99.99
2019-02-06T12:42:33.892Z,99.99
2019-02-06T12:43:41.876Z,99.99
2019-02-06T12:44:49.932Z,99.99
2019-02-06T12:45:57.992Z,99.99
2019-02-06T12:47:06.056Z,99.99
2019-02-06T12:48:14.108Z,99.99
2019-02-06T12:49:22.138Z,99.99
2019-02-06T12:50:30.320Z,99.99
2019-02-06T12:51:38.582Z,99.99
2019-02-06T12:52:46.334Z,99.99
2019-02-06T12:53:54.498Z,99.99
2019-02-06T12:55:02.776Z,99.99
2019-02-06T12:56:11.043Z,99.99
2019-02-06T12:57:18.861Z,99.99
2019-02-06T12:58:26.652Z,99.99
2019-02-06T12:59:34.705Z,99.99
2019-02-06T13:00:42.775Z,99.99
2019-02-06T13:01:50.830Z,99.99
2019-02-06T13:02:59.987Z,99.99
2019-02-06T13:04:06.950Z,99.99
2019-02-06T13:05:15.079Z,99.99
2019-02-06T13:06:23.052Z,99.99
2019-02-06T13:07:31.103Z,99.99
2019-02-06T13:08:39.167Z,99.99
2019-02-06T13:09:47.221Z,99.99
2019-02-06T13:10:55.479Z,99.99
2019-02-06T13:12:03.350Z,99.99
2019-02-06T13:13:11.386Z,99.99
2019-02-06T13:14:19.463Z,99.99
2019-02-06T13:15:27.525Z,99.99
2019-02-06T13:16:35.589Z,99.99
2019-02-06T13:17:43.667Z,99.99
2019-02-06T13:18:51.673Z,99.99
2019-02-06T13:20:00.054Z,99.99
2019-02-06T13:21:08.089Z,99.99
2019-02-06T13:22:16.121Z,99.99
2019-02-06T13:23:23.924Z,99.99
2019-02-06T13:24:32.288Z,99.99
2019-02-06T13:25:40.050Z,99.99
2019-02-06T13:26:48.127Z,99.99
2019-02-06T13:27:56.245Z,99.99
2019-02-06T13:29:04.253Z,99.99
2019-02-06T13:30:12.258Z,99.99
2019-02-06T13:31:20.330Z,99.99
2019-02-06T13:32:28.405Z,99.99
2019-02-06T13:33:36.561Z,99.99
2019-02-06T13:34:44.510Z,99.99
2019-02-06T13:35:52.571Z,99.99
2019-02-06T13:37:00.650Z,99.99
2019-02-06T13:38:08.683Z,99.99
2019-02-06T13:39:16.766Z,99.99
2019-02-06T13:40:24.805Z,99.99
2019-02-06T13:41:33.428Z,99.99
2019-02-06T13:42:40.962Z,99.99
2019-02-06T13:43:48.990Z,99.99
2019-02-06T13:44:57.039Z,99.99
2019-02-06T13:46:05.130Z,99.99
2019-02-06T13:47:13.512Z,99.99
2019-02-06T13:48:21.467Z,99.99
2019-02-06T13:49:29.570Z,99.99
2019-02-06T13:50:37.637Z,99.99
2019-02-06T13:51:46.452Z,99.99
2019-02-06T13:52:53.447Z,99.99
2019-02-06T13:54:01.506Z,99.99
2019-02-06T13:55:09.569Z,99.99
2019-02-06T13:56:17.605Z,99.99
2019-02-06T13:57:33.299Z,99.99
2019-02-06T13:58:33.737Z,99.99
2019-02-06T13:59:41.766Z,99.99
2019-02-06T14:00:52.240Z,99.99
2019-02-06T14:01:57.911Z,99.99
2019-02-06T14:03:05.962Z,99.99
2019-02-06T14:05:22.096Z,99.99
2019-02-06T14:06:30.136Z,99.99
2019-02-06T14:07:38.199Z,99.99
2019-02-06T14:08:46.287Z,99.99
2019-02-06T14:09:54.313Z,99.99
2019-02-06T14:11:02.367Z,99.99
2019-02-06T14:12:13.177Z,99.99
2019-02-06T14:13:18.496Z,99.99
2019-02-06T14:14:26.941Z,99.99
2019-02-06T14:15:34.608Z,99.99
2019-02-06T14:16:42.665Z,99.99
2019-02-06T14:17:50.727Z,99.99
2019-02-06T14:18:58.793Z,99.99
2019-02-06T14:20:06.851Z,99.99
2019-02-06T14:21:14.912Z,99.99
2019-02-06T14:22:22.954Z,99.99
2019-02-06T14:23:31.014Z,99.99
2019-02-06T14:24:39.101Z,99.99
2019-02-06T14:25:47.152Z,99.99
2019-02-06T14:26:55.187Z,99.99
2019-02-06T14:28:03.244Z,99.99
2019-02-06T14:29:11.295Z,99.99
2019-02-06T14:30:19.355Z,99.99
2019-02-06T14:31:27.425Z,99.99
2019-02-06T14:32:35.480Z,99.99
2019-02-06T14:33:43.535Z,99.99
2019-02-06T14:34:51.570Z,99.99
2019-02-06T14:35:59.656Z,99.99
2019-02-06T14:37:08.118Z,99.99